Time;durP1;ratioP1;P1;durP2;ratioP2;P2;SDS_P1;SDS_P2;PMS_P1;PMS_P2;Temp;Humidity;BMP_temperature;BMP_pressure;BME280_temperature;BME280_humidity;BME280_pressure;Samples;Min_cycle;Max_cycle;Signal;HPM_P1;HPM_P2
2023/08/20 00:00:46;;;;;;;7.10;6.40;;;;;23.50;100967.00;;;;2098128;28;20266;-71
2023/08/20 00:01:46;;;;;;;6.90;6.30;;;;;23.50;100947.00;;;;2104218;28;20226;-71
2023/08/20 00:02:46;;;;;;;7.87;6.83;;;;;23.50;100958.00;;;;2088508;28;20706;-71
2023/08/20 00:03:47;;;;;;;7.43;6.73;;;;;23.40;100964.00;;;;2078053;28;20224;-71
2023/08/20 00:04:47;;;;;;;6.37;5.80;;;;;23.40;100964.00;;;;2103957;28;20226;-71
2023/08/20 00:05:48;;;;;;;8.23;6.80;;;;;23.40;100972.00;;;;2088051;28;20229;-71
2023/08/20 00:06:48;;;;;;;7.30;6.60;;;;;23.40;100968.00;;;;2081617;28;20217;-71
2023/08/20 00:07:48;;;;;;;7.23;6.53;;;;;23.40;100966.00;;;;2105644;28;20219;-71
2023/08/20 00:08:49;;;;;;;8.70;6.90;;;;;23.40;100969.00;;;;2099866;28;20223;-71
2023/08/20 00:09:49;;;;;;;6.70;5.67;;;;;23.40;100962.00;;;;2112293;28;20770;-71
2023/08/20 00:10:50;;;;;;;7.50;6.90;;;;;23.40;100951.00;;;;2108494;28;20272;-71
2023/08/20 00:11:50;;;;;;;6.70;6.13;;;;;23.40;100954.00;;;;2103779;28;20219;-71
2023/08/20 00:12:50;;;;;;;8.00;6.63;;;;;23.40;100963.00;;;;2105010;28;20219;-71
2023/08/20 00:13:50;;;;;;;7.57;6.33;;;;;23.40;100958.00;;;;2091506;28;20316;-71
2023/08/20 00:15:04;;;;;;;7.27;6.60;;;;;23.30;100955.00;;;;2097241;28;20220;-71
2023/08/20 00:16:05;;;;;;;6.32;5.72;;;;;23.40;100959.00;;;;2104563;28;20687;-71
2023/08/20 00:17:06;;;;;;;6.93;6.23;;;;;23.40;100961.00;;;;2105367;28;20204;-71
2023/08/20 00:18:06;;;;;;;7.37;6.67;;;;;23.40;100955.00;;;;2103641;28;20218;-71
2023/08/20 00:19:07;;;;;;;7.00;6.30;;;;;23.40;100959.00;;;;2093320;28;20290;-71
2023/08/20 00:20:14;;;;;;;6.87;6.17;;;;;23.30;100950.00;;;;2106050;28;20260;-71
2023/08/20 00:21:15;;;;;;;7.00;6.35;;;;;23.30;100897.00;;;;2104387;28;20226;-71
2023/08/20 00:22:16;;;;;;;7.43;6.73;;;;;23.30;100961.00;;;;2096583;28;20963;-71
2023/08/20 00:23:16;;;;;;;8.10;6.13;;;;;23.30;100964.00;;;;2084257;28;20215;-71
2023/08/20 00:24:17;;;;;;;7.07;6.47;;;;;23.30;100953.00;;;;2095949;28;20521;-71
2023/08/20 00:25:17;;;;;;;9.50;6.60;;;;;23.30;100963.00;;;;2101398;28;20661;-71
2023/08/20 00:26:18;;;;;;;6.93;6.23;;;;;23.30;100960.00;;;;2110426;28;20219;-71
2023/08/20 00:27:18;;;;;;;6.73;6.13;;;;;23.40;100957.00;;;;2111657;28;20230;-71
2023/08/20 00:28:19;;;;;;;7.07;6.37;;;;;23.40;100962.00;;;;2093132;28;20228;-71
2023/08/20 00:29:20;;;;;;;7.45;6.75;;;;;23.40;100954.00;;;;2092217;28;20324;-71
2023/08/20 00:30:20;;;;;;;8.50;6.40;;;;;23.30;100965.00;;;;2096844;28;20212;-71
2023/08/20 00:31:21;;;;;;;7.67;6.27;;;;;23.30;100932.00;;;;2105247;28;20218;-71
2023/08/20 00:32:21;;;;;;;7.80;7.10;;;;;23.40;100952.00;;;;2104667;28;20230;-71
2023/08/20 00:33:21;;;;;;;7.57;6.80;;;;;23.30;100959.00;;;;2092319;28;20221;-71
2023/08/20 00:34:21;;;;;;;7.33;6.30;;;;;23.30;100961.00;;;;2093548;28;20227;-71
2023/08/20 00:35:22;;;;;;;7.60;6.53;;;;;23.30;100962.00;;;;2077912;28;20220;-71
2023/08/20 00:36:22;;;;;;;9.03;6.50;;;;;23.30;100954.00;;;;2087878;28;20213;-71
2023/08/20 00:37:22;;;;;;;8.20;6.80;;;;;23.30;100959.00;;;;2103279;28;20245;-71
2023/08/20 00:38:23;;;;;;;6.73;6.10;;;;;23.40;100953.00;;;;2090971;28;20404;-71
2023/08/20 00:39:23;;;;;;;8.07;6.40;;;;;23.30;100966.00;;;;2108964;28;20207;-71
2023/08/20 00:40:23;;;;;;;7.00;6.40;;;;;23.30;100966.00;;;;2108591;28;20203;-71
2023/08/20 00:41:24;;;;;;;7.87;6.90;;;;;23.30;100968.00;;;;2101335;28;20341;-71
2023/08/20 00:42:27;;;;;;;7.67;6.80;;;;;23.30;100966.00;;;;2103375;28;20227;-71
2023/08/20 00:43:28;;;;;;;7.60;6.90;;;;;23.30;100971.00;;;;2095108;28;20223;-71
2023/08/20 00:44:28;;;;;;;10.00;7.33;;;;;23.30;100968.00;;;;2106625;28;20211;-71
2023/08/20 00:45:28;;;;;;;7.57;6.77;;;;;23.30;100972.00;;;;2101230;28;20216;-71
2023/08/20 00:46:29;;;;;;;7.97;7.30;;;;;23.30;100974.00;;;;2104977;28;20246;-71
2023/08/20 00:47:30;;;;;;;7.43;6.68;;;;;23.30;100963.00;;;;2094871;28;20215;-71
2023/08/20 00:48:30;;;;;;;7.70;6.83;;;;;23.30;100972.00;;;;2094867;28;20230;-71
2023/08/20 00:49:31;;;;;;;6.73;6.13;;;;;23.30;100934.00;;;;2106769;28;20227;-71
2023/08/20 00:50:31;;;;;;;7.88;7.18;;;;;23.30;100967.00;;;;2101617;28;20218;-71
2023/08/20 00:51:32;;;;;;;9.13;6.70;;;;;23.30;100959.00;;;;2092368;28;20216;-71
2023/08/20 00:52:33;;;;;;;8.80;7.90;;;;;23.20;100955.00;;;;2101394;28;20215;-71
2023/08/20 00:53:34;;;;;;;9.30;8.40;;;;;23.20;100955.00;;;;2097505;28;20491;-71
2023/08/20 00:54:34;;;;;;;8.70;7.90;;;;;23.20;100950.00;;;;2109802;27;20471;-71
2023/08/20 00:55:35;;;;;;;8.87;7.97;;;;;23.20;100954.00;;;;2107666;28;20272;-71
2023/08/20 00:56:35;;;;;;;11.33;7.97;;;;;23.20;100947.00;;;;2103545;28;20234;-71
2023/08/20 00:57:38;;;;;;;9.43;7.40;;;;;23.20;100947.00;;;;2113025;28;20565;-71
2023/08/20 00:58:39;;;;;;;7.35;6.65;;;;;23.20;100956.00;;;;2101298;28;20223;-71
2023/08/20 00:59:39;;;;;;;9.80;7.30;;;;;23.20;100952.00;;;;2107720;28;20219;-71
2023/08/20 01:00:39;;;;;;;10.27;6.33;;;;;23.20;100954.00;;;;2106015;28;20203;-71
2023/08/20 01:01:40;;;;;;;7.60;6.80;;;;;23.10;100956.00;;;;2104370;28;20249;-71
2023/08/20 01:02:40;;;;;;;8.07;6.60;;;;;23.20;100950.00;;;;2102139;28;20218;-71
2023/08/20 01:03:41;;;;;;;7.40;6.70;;;;;23.20;100959.00;;;;2090280;28;20736;-71
2023/08/20 01:04:41;;;;;;;7.50;6.57;;;;;23.20;100955.00;;;;2110948;28;20222;-71
2023/08/20 01:05:46;;;;;;;6.87;6.27;;;;;23.20;100961.00;;;;2093158;28;20216;-71
2023/08/20 01:06:53;;;;;;;7.63;6.30;;;;;23.20;100951.00;;;;2095540;28;20235;-71
2023/08/20 01:07:54;;;;;;;9.57;6.78;;;;;23.20;100953.00;;;;2095208;28;20690;-71
2023/08/20 01:08:58;;;;;;;7.67;6.87;;;;;23.20;100944.00;;;;2084667;28;20216;-71
2023/08/20 01:10:29;;;;;;;9.30;7.00;;;;;23.20;100952.00;;;;2095709;28;20215;-71
2023/08/20 01:11:44;;;;;;;7.60;6.90;;;;;23.10;100920.00;;;;2103366;28;20790;-71
2023/08/20 01:12:45;;;;;;;8.20;6.55;;;;;23.20;100952.00;;;;2096109;28;21010;-71
2023/08/20 01:13:45;;;;;;;7.07;6.35;;;;;23.20;100951.00;;;;2078595;28;20329;-71
2023/08/20 01:14:46;;;;;;;7.97;6.80;;;;;23.20;100955.00;;;;2104355;28;20267;-71
2023/08/20 01:15:46;;;;;;;6.93;5.97;;;;;23.10;100948.00;;;;2102173;28;20212;-71
2023/08/20 01:16:49;;;;;;;8.60;6.60;;;;;23.10;100953.00;;;;2100619;28;20230;-71
2023/08/20 01:17:49;;;;;;;7.72;6.80;;;;;23.10;100955.00;;;;2102663;28;20323;-72
2023/08/20 01:18:49;;;;;;;8.13;7.30;;;;;23.10;100952.00;;;;2098994;28;20229;-72
2023/08/20 01:19:49;;;;;;;9.00;7.30;;;;;23.10;100948.00;;;;2112246;28;21015;-72
2023/08/20 01:20:57;;;;;;;10.03;6.83;;;;;23.10;100948.00;;;;2090579;28;20229;-72
2023/08/20 01:22:13;;;;;;;7.13;6.20;;;;;23.10;100950.00;;;;2087479;28;20354;-72
2023/08/20 01:23:19;;;;;;;7.45;6.68;;;;;23.10;100947.00;;;;2094564;28;20210;-72
2023/08/20 01:24:39;;;;;;;7.45;5.90;;;;;23.10;100945.00;;;;2110380;28;20235;-72
2023/08/20 01:26:12;;;;;;;7.47;6.70;;;;;23.10;100940.00;;;;2092885;28;20258;-72
2023/08/20 01:27:42;;;;;;;7.05;6.35;;;;;23.10;100952.00;;;;2097581;28;20219;-72
2023/08/20 01:28:43;;;;;;;7.88;7.03;;;;;23.10;100951.00;;;;2089467;28;20220;-72
2023/08/20 01:29:43;;;;;;;7.23;6.53;;;;;23.10;100954.00;;;;2091293;28;20290;-72
2023/08/20 01:30:43;;;;;;;9.10;6.07;;;;;23.10;100954.00;;;;2090514;28;20205;-72
2023/08/20 01:31:44;;;;;;;8.03;7.23;;;;;23.10;100934.00;;;;2085145;28;20225;-72
2023/08/20 01:32:44;;;;;;;7.47;6.77;;;;;23.10;100939.00;;;;2087669;28;20217;-72
2023/08/20 01:33:45;;;;;;;7.13;6.53;;;;;23.10;100953.00;;;;2083814;28;20220;-71
2023/08/20 01:34:45;;;;;;;7.10;6.40;;;;;23.10;100953.00;;;;2095888;28;20208;-71
2023/08/20 01:35:46;;;;;;;9.10;6.00;;;;;23.10;100958.00;;;;2106389;28;20223;-71
2023/08/20 01:36:46;;;;;;;7.50;6.80;;;;;23.10;100959.00;;;;2103317;28;20238;-71
2023/08/20 01:37:46;;;;;;;7.90;7.20;;;;;23.10;100966.00;;;;2095736;28;20228;-71
2023/08/20 01:38:47;;;;;;;6.50;5.90;;;;;23.10;100965.00;;;;2091290;28;20232;-71
2023/08/20 01:39:47;;;;;;;8.30;7.43;;;;;23.10;100962.00;;;;2112526;28;20247;-71
2023/08/20 01:40:47;;;;;;;7.87;7.17;;;;;23.10;100957.00;;;;2095530;28;20220;-71
2023/08/20 01:41:48;;;;;;;7.60;6.80;;;;;23.00;100966.00;;;;2103223;28;20276;-71
2023/08/20 01:42:48;;;;;;;7.50;6.00;;;;;23.10;100964.00;;;;2103676;28;20720;-71
2023/08/20 01:43:48;;;;;;;8.13;7.33;;;;;23.10;100963.00;;;;2095139;28;20289;-71
2023/08/20 01:44:49;;;;;;;8.70;6.90;;;;;23.10;100960.00;;;;2104600;28;21516;-71
2023/08/20 01:45:49;;;;;;;7.50;6.80;;;;;23.00;100957.00;;;;2103450;28;20477;-71
2023/08/20 01:46:50;;;;;;;8.77;7.00;;;;;23.10;100963.00;;;;2104461;28;20226;-71
2023/08/20 01:47:50;;;;;;;9.10;6.83;;;;;23.10;100970.00;;;;2103515;28;20296;-71
2023/08/20 01:48:50;;;;;;;7.27;6.60;;;;;23.00;100918.00;;;;2093025;28;20216;-71
2023/08/20 01:49:51;;;;;;;10.30;7.17;;;;;23.00;100963.00;;;;2103740;28;20227;-71
2023/08/20 01:50:51;;;;;;;7.83;7.13;;;;;23.10;100963.00;;;;2103496;28;20224;-71
2023/08/20 01:51:51;;;;;;;7.40;6.80;;;;;23.10;100936.00;;;;2104205;28;20215;-71
2023/08/20 01:52:52;;;;;;;7.70;6.63;;;;;23.00;100958.00;;;;2103405;28;20280;-71
2023/08/20 01:53:52;;;;;;;7.63;6.70;;;;;23.00;100951.00;;;;2099551;28;20340;-71
2023/08/20 01:54:53;;;;;;;7.10;6.40;;;;;23.00;100947.00;;;;2108676;28;20211;-71
2023/08/20 01:55:53;;;;;;;7.47;6.18;;;;;23.00;100954.00;;;;2096425;28;20231;-71
2023/08/20 01:56:54;;;;;;;6.67;6.07;;;;;23.00;100947.00;;;;2103347;28;20581;-71
2023/08/20 01:57:54;;;;;;;7.20;5.97;;;;;23.00;100952.00;;;;2102737;28;20681;-71
2023/08/20 01:58:54;;;;;;;10.67;7.50;;;;;23.00;100951.00;;;;2099744;28;20529;-71
2023/08/20 01:59:55;;;;;;;6.63;6.03;;;;;23.00;100948.00;;;;2112055;28;20557;-71
2023/08/20 02:00:55;;;;;;;6.93;6.33;;;;;23.00;100943.00;;;;2100153;28;20643;-71
2023/08/20 02:01:56;;;;;;;9.40;6.40;;;;;23.10;100950.00;;;;2104217;28;20212;-71
2023/08/20 02:02:56;;;;;;;6.53;6.00;;;;;23.00;100950.00;;;;2103896;28;20235;-71
2023/08/20 02:03:56;;;;;;;7.10;6.50;;;;;23.00;100952.00;;;;2098260;28;20211;-71
2023/08/20 02:04:57;;;;;;;7.30;6.60;;;;;23.00;100949.00;;;;2111008;28;20653;-71
2023/08/20 02:05:57;;;;;;;8.70;6.30;;;;;23.00;100928.00;;;;2106345;28;20215;-71
2023/08/20 02:06:58;;;;;;;7.93;6.90;;;;;23.00;100943.00;;;;2102092;28;20247;-71
2023/08/20 02:07:58;;;;;;;7.70;6.93;;;;;23.00;100956.00;;;;2087100;28;20220;-71
2023/08/20 02:08:59;;;;;;;8.13;7.33;;;;;22.90;100956.00;;;;2085350;28;20212;-71
2023/08/20 02:09:59;;;;;;;8.50;6.70;;;;;23.00;100954.00;;;;2111716;28;20222;-71
2023/08/20 02:11:03;;;;;;;6.77;6.27;;;;;23.00;100957.00;;;;2103904;28;20308;-71
2023/08/20 02:12:04;;;;;;;9.27;7.05;;;;;23.00;100951.00;;;;2092329;28;20224;-71
2023/08/20 02:13:05;;;;;;;10.70;7.00;;;;;23.00;100956.00;;;;2103514;28;20323;-71
2023/08/20 02:14:05;;;;;;;7.63;6.83;;;;;23.00;100942.00;;;;2086632;28;20219;-71
2023/08/20 02:15:06;;;;;;;7.10;6.40;;;;;23.00;100956.00;;;;2107773;28;20480;-71
2023/08/20 02:16:06;;;;;;;12.73;7.40;;;;;23.00;100940.00;;;;2097720;28;20350;-71
2023/08/20 02:17:07;;;;;;;8.83;6.47;;;;;22.90;100959.00;;;;2103312;28;20457;-71
2023/08/20 02:18:07;;;;;;;9.70;6.43;;;;;23.00;100959.00;;;;2087267;28;20201;-71
2023/08/20 02:19:07;;;;;;;7.47;6.60;;;;;22.90;100960.00;;;;2076733;28;20209;-71
2023/08/20 02:20:11;;;;;;;8.10;6.77;;;;;22.90;100959.00;;;;2092529;28;20720;-71
2023/08/20 02:21:11;;;;;;;7.68;6.97;;;;;22.90;100961.00;;;;2102656;28;20239;-71
2023/08/20 02:22:12;;;;;;;8.50;6.90;;;;;23.00;100973.00;;;;2104582;28;20215;-71
2023/08/20 02:23:12;;;;;;;7.63;6.70;;;;;22.90;100969.00;;;;2100124;28;20245;-71
2023/08/20 02:24:12;;;;;;;9.20;6.63;;;;;22.90;100974.00;;;;2090195;28;20208;-71
2023/08/20 02:25:13;;;;;;;8.13;6.43;;;;;22.90;100967.00;;;;2086922;28;20805;-71
2023/08/20 02:26:14;;;;;;;8.03;7.23;;;;;22.90;100970.00;;;;2099415;28;20679;-72
2023/08/20 02:27:15;;;;;;;7.85;7.13;;;;;22.90;100980.00;;;;2104643;28;20212;-72
2023/08/20 02:28:15;;;;;;;7.83;7.13;;;;;22.90;100975.00;;;;2091201;28;20223;-72
2023/08/20 02:29:15;;;;;;;7.80;7.10;;;;;22.90;100977.00;;;;2095067;28;20211;-72
2023/08/20 02:30:16;;;;;;;7.60;6.80;;;;;22.90;100978.00;;;;2101931;28;20270;-72
2023/08/20 02:31:16;;;;;;;10.40;6.77;;;;;22.90;100985.00;;;;2097542;28;20208;-72
2023/08/20 02:32:16;;;;;;;7.60;6.90;;;;;22.90;100983.00;;;;2100612;28;20761;-72
2023/08/20 02:33:17;;;;;;;11.13;6.80;;;;;22.90;100982.00;;;;2091729;28;20732;-72
2023/08/20 02:34:17;;;;;;;9.43;6.77;;;;;22.90;100987.00;;;;2097325;28;20226;-72
2023/08/20 02:35:17;;;;;;;7.57;6.77;;;;;22.90;100985.00;;;;2102850;28;20212;-71
2023/08/20 02:36:18;;;;;;;7.53;6.83;;;;;22.90;100990.00;;;;2102394;28;20589;-71
2023/08/20 02:37:18;;;;;;;7.63;6.90;;;;;22.80;100987.00;;;;2102909;28;20213;-71
2023/08/20 02:38:18;;;;;;;8.33;7.57;;;;;22.90;100997.00;;;;2092290;28;20207;-71
2023/08/20 02:39:20;;;;;;;8.07;7.27;;;;;22.90;101000.00;;;;2100856;28;20928;-72
2023/08/20 02:40:20;;;;;;;9.98;7.30;;;;;22.80;101004.00;;;;2099041;28;20208;-72
2023/08/20 02:41:20;;;;;;;8.43;7.00;;;;;22.90;100999.00;;;;2100923;28;20912;-72
2023/08/20 02:42:21;;;;;;;9.33;7.30;;;;;22.90;101003.00;;;;2103387;28;20211;-72
2023/08/20 02:43:21;;;;;;;8.80;7.50;;;;;22.90;101006.00;;;;2095221;28;20238;-72
2023/08/20 02:44:21;;;;;;;7.63;6.80;;;;;22.90;101004.00;;;;2110796;28;20688;-72
2023/08/20 02:45:22;;;;;;;7.57;6.90;;;;;22.90;101009.00;;;;2109411;28;20611;-72
2023/08/20 02:46:22;;;;;;;7.93;6.93;;;;;22.90;100997.00;;;;2103458;28;20672;-72
2023/08/20 02:47:22;;;;;;;11.00;6.17;;;;;22.90;100999.00;;;;2102406;28;20199;-72
2023/08/20 02:48:26;;;;;;;7.90;7.10;;;;;22.90;101011.00;;;;2092232;28;20219;-72
2023/08/20 02:49:27;;;;;;;7.65;6.95;;;;;22.90;101004.00;;;;2109111;28;20715;-72
2023/08/20 02:50:27;;;;;;;7.33;6.63;;;;;22.90;101002.00;;;;2108922;28;20206;-71
2023/08/20 02:51:27;;;;;;;7.63;6.83;;;;;22.80;101008.00;;;;2103476;28;20235;-71
2023/08/20 02:52:28;;;;;;;7.63;6.93;;;;;22.80;100998.00;;;;2103446;28;20829;-71
2023/08/20 02:53:28;;;;;;;10.33;6.80;;;;;22.80;100997.00;;;;2084987;28;20220;-71
2023/08/20 02:54:31;;;;;;;7.37;6.63;;;;;22.80;101000.00;;;;2102102;28;20215;-71
2023/08/20 02:55:32;;;;;;;9.43;7.50;;;;;22.80;101000.00;;;;2094587;28;20226;-71
2023/08/20 02:56:32;;;;;;;8.17;7.40;;;;;22.80;100999.00;;;;2101775;28;20213;-71
2023/08/20 02:57:33;;;;;;;8.63;7.30;;;;;22.80;101001.00;;;;2104408;28;20231;-71
2023/08/20 02:58:33;;;;;;;8.17;6.73;;;;;22.80;101002.00;;;;2095459;28;20721;-71
2023/08/20 02:59:34;;;;;;;7.83;6.50;;;;;22.90;100989.00;;;;2111740;28;20634;-71
2023/08/20 03:00:34;;;;;;;7.50;6.70;;;;;22.80;100990.00;;;;2106133;28;20277;-71
2023/08/20 03:01:34;;;;;;;7.47;6.77;;;;;22.80;100996.00;;;;2103161;28;20207;-71
2023/08/20 03:02:35;;;;;;;9.27;7.80;;;;;22.80;100995.00;;;;2104378;28;20235;-71
2023/08/20 03:03:35;;;;;;;7.33;6.50;;;;;22.90;101001.00;;;;2096131;28;20225;-71
2023/08/20 03:04:35;;;;;;;7.77;6.87;;;;;22.90;101004.00;;;;2110697;28;20237;-71
2023/08/20 03:05:36;;;;;;;12.20;6.37;;;;;22.80;101000.00;;;;2101617;28;20265;-71
2023/08/20 03:06:36;;;;;;;8.17;7.47;;;;;22.80;100991.00;;;;2102399;28;20215;-71
2023/08/20 03:07:36;;;;;;;11.30;6.63;;;;;22.80;100998.00;;;;2102618;28;20222;-71
2023/08/20 03:08:37;;;;;;;7.40;6.20;;;;;22.90;101003.00;;;;2093411;28;20236;-71
2023/08/20 03:09:37;;;;;;;9.53;6.90;;;;;22.90;101000.00;;;;2102733;28;20205;-71
2023/08/20 03:10:37;;;;;;;7.70;7.00;;;;;22.90;100995.00;;;;2097544;28;20216;-71
2023/08/20 03:11:38;;;;;;;8.47;7.17;;;;;22.90;101000.00;;;;2103221;28;20265;-71
2023/08/20 03:12:38;;;;;;;7.63;6.87;;;;;22.90;100998.00;;;;2104474;28;20223;-71
2023/08/20 03:13:38;;;;;;;7.13;6.43;;;;;22.90;100992.00;;;;2097155;28;20325;-71
2023/08/20 03:14:38;;;;;;;7.53;6.70;;;;;22.80;100996.00;;;;2108119;28;20211;-71
2023/08/20 03:15:39;;;;;;;9.10;7.20;;;;;22.90;100987.00;;;;2099866;28;20230;-72
2023/08/20 03:16:39;;;;;;;11.27;7.60;;;;;22.90;100999.00;;;;2103165;28;20247;-72
2023/08/20 03:17:39;;;;;;;11.80;6.70;;;;;22.90;101000.00;;;;2104434;28;20677;-72
2023/08/20 03:18:40;;;;;;;8.40;6.70;;;;;22.80;101003.00;;;;2096122;28;20730;-72
2023/08/20 03:19:56;;;;;;;8.50;7.57;;;;;22.80;101003.00;;;;2112022;28;20225;-72
2023/08/20 03:20:56;;;;;;;8.05;7.25;;;;;22.80;100998.00;;;;2099739;28;20219;-72
2023/08/20 03:21:56;;;;;;;8.47;6.90;;;;;22.80;101003.00;;;;2102806;28;20579;-71
2023/08/20 03:22:57;;;;;;;10.83;7.83;;;;;22.80;101003.00;;;;2104204;28;20212;-71
2023/08/20 03:23:57;;;;;;;9.60;6.73;;;;;22.80;101004.00;;;;2099186;28;20226;-71
2023/08/20 03:24:58;;;;;;;8.00;7.17;;;;;22.80;100993.00;;;;2109697;28;20302;-71
2023/08/20 03:25:59;;;;;;;10.00;7.83;;;;;22.80;100992.00;;;;2104549;28;20219;-71
2023/08/20 03:26:59;;;;;;;7.32;6.63;;;;;22.80;100996.00;;;;2104354;28;20223;-71
2023/08/20 03:27:59;;;;;;;9.47;7.47;;;;;22.80;100995.00;;;;2104020;28;20239;-71
2023/08/20 03:29:00;;;;;;;9.30;8.20;;;;;22.80;101000.00;;;;2097251;28;20230;-71
2023/08/20 03:30:00;;;;;;;8.93;8.00;;;;;22.80;101004.00;;;;2111799;28;20222;-71
2023/08/20 03:31:01;;;;;;;7.87;7.13;;;;;22.80;101004.00;;;;2103432;28;21635;-71
2023/08/20 03:32:02;;;;;;;8.60;7.68;;;;;22.80;101018.00;;;;2104120;28;20642;-71
2023/08/20 03:33:03;;;;;;;9.70;7.60;;;;;22.80;101015.00;;;;2100400;28;20271;-71
2023/08/20 03:34:03;;;;;;;8.70;7.50;;;;;22.80;101013.00;;;;2096325;28;20628;-71
2023/08/20 03:35:04;;;;;;;10.10;7.63;;;;;22.80;101019.00;;;;2111389;28;20704;-71
2023/08/20 03:36:04;;;;;;;8.70;7.43;;;;;22.80;101012.00;;;;2099396;28;20302;-71
2023/08/20 03:37:04;;;;;;;8.20;7.40;;;;;22.80;101016.00;;;;2104234;28;20224;-71
2023/08/20 03:38:05;;;;;;;7.60;6.93;;;;;22.80;100990.00;;;;2103335;28;20203;-71
2023/08/20 03:39:05;;;;;;;8.57;7.67;;;;;22.80;101001.00;;;;2090357;28;20830;-72
2023/08/20 03:40:06;;;;;;;8.60;7.70;;;;;22.80;101010.00;;;;2110872;28;20235;-72
2023/08/20 03:41:06;;;;;;;8.73;7.50;;;;;22.80;101010.00;;;;2096156;28;20552;-72
2023/08/20 03:42:06;;;;;;;8.00;7.30;;;;;22.80;101017.00;;;;2103841;28;20225;-72
2023/08/20 03:43:07;;;;;;;8.20;7.40;;;;;22.80;101010.00;;;;2103788;28;20734;-72
2023/08/20 03:44:07;;;;;;;8.20;7.40;;;;;22.80;101010.00;;;;2090205;28;20210;-72
2023/08/20 03:45:08;;;;;;;7.20;6.50;;;;;22.80;101010.00;;;;2111015;28;20214;-72
2023/08/20 03:46:08;;;;;;;8.43;7.00;;;;;22.70;101011.00;;;;2104491;28;20269;-72
2023/08/20 03:47:08;;;;;;;9.83;7.90;;;;;22.70;101014.00;;;;2103158;28;20239;-72
2023/08/20 03:48:09;;;;;;;8.03;7.23;;;;;22.70;101013.00;;;;2104176;28;20235;-72
2023/08/20 03:49:10;;;;;;;8.00;7.20;;;;;22.80;101009.00;;;;2090597;28;20211;-72
2023/08/20 03:50:10;;;;;;;7.03;6.43;;;;;22.80;101010.00;;;;2110925;28;20218;-72
2023/08/20 03:51:10;;;;;;;9.03;7.80;;;;;22.80;101006.00;;;;2103608;28;20460;-72
2023/08/20 03:52:10;;;;;;;7.80;7.00;;;;;22.80;101011.00;;;;2102221;28;20247;-72
2023/08/20 03:53:11;;;;;;;7.77;7.10;;;;;22.80;101008.00;;;;2104713;28;20223;-71
2023/08/20 03:54:11;;;;;;;7.80;7.10;;;;;22.80;101009.00;;;;2083452;28;20230;-71
2023/08/20 03:55:11;;;;;;;8.40;7.60;;;;;22.80;101004.00;;;;2098684;28;20294;-71
2023/08/20 03:56:12;;;;;;;8.83;7.57;;;;;22.80;100982.00;;;;2099348;28;20203;-71
2023/08/20 03:57:12;;;;;;;8.33;7.53;;;;;22.80;100994.00;;;;2102943;28;20211;-71
2023/08/20 03:58:12;;;;;;;8.27;7.57;;;;;22.80;101004.00;;;;2096800;28;20246;-71
2023/08/20 03:59:13;;;;;;;8.70;7.87;;;;;22.80;101011.00;;;;2104330;28;20211;-71
2023/08/20 04:00:13;;;;;;;8.07;7.20;;;;;22.70;100970.00;;;;2106378;28;20219;-71
2023/08/20 04:01:14;;;;;;;8.73;7.90;;;;;22.70;101011.00;;;;2097519;28;20553;-71
2023/08/20 04:02:14;;;;;;;8.20;7.40;;;;;22.80;101014.00;;;;2104082;28;20204;-71
2023/08/20 04:03:19;;;;;;;8.57;7.40;;;;;22.80;101015.00;;;;2095154;28;20222;-71
2023/08/20 04:04:20;;;;;;;9.15;7.68;;;;;22.80;100965.00;;;;2095495;28;20219;-71
2023/08/20 04:05:21;;;;;;;8.48;7.32;;;;;22.80;101016.00;;;;2086892;28;20277;-71
2023/08/20 04:06:21;;;;;;;9.13;8.10;;;;;22.70;101002.00;;;;2096669;28;20266;-71
2023/08/20 04:07:21;;;;;;;8.10;7.40;;;;;22.80;101019.00;;;;2102440;28;20254;-71
2023/08/20 04:08:22;;;;;;;8.83;7.93;;;;;22.80;101017.00;;;;2084831;28;20213;-71
2023/08/20 04:09:22;;;;;;;8.80;7.93;;;;;22.80;100963.00;;;;2096122;28;20212;-71
2023/08/20 04:10:22;;;;;;;10.30;8.60;;;;;22.80;101016.00;;;;2097166;28;20208;-71
2023/08/20 04:11:23;;;;;;;9.37;8.30;;;;;22.70;101022.00;;;;2093581;28;20219;-71
2023/08/20 04:12:23;;;;;;;8.63;7.40;;;;;22.70;101022.00;;;;2102143;28;20205;-71
2023/08/20 04:13:23;;;;;;;8.70;7.87;;;;;22.70;101014.00;;;;2093002;28;20238;-71
2023/08/20 04:14:24;;;;;;;11.60;7.80;;;;;22.80;101022.00;;;;2104276;28;20216;-71
2023/08/20 04:15:24;;;;;;;8.13;7.43;;;;;22.80;101025.00;;;;2104451;28;20219;-71
2023/08/20 04:16:24;;;;;;;11.00;7.80;;;;;22.80;101015.00;;;;2102969;28;20206;-71
2023/08/20 04:17:25;;;;;;;8.13;7.33;;;;;22.80;101023.00;;;;2103896;28;20203;-71
2023/08/20 04:18:25;;;;;;;8.87;7.97;;;;;22.80;101017.00;;;;2093010;28;20692;-71
2023/08/20 04:19:26;;;;;;;9.03;8.13;;;;;22.80;101018.00;;;;2101566;28;20210;-71
2023/08/20 04:20:26;;;;;;;8.80;7.97;;;;;22.80;101020.00;;;;2110936;28;20207;-71
2023/08/20 04:21:26;;;;;;;8.70;7.90;;;;;22.80;101016.00;;;;2105581;28;20211;-71
2023/08/20 04:22:30;;;;;;;9.33;8.27;;;;;22.80;101024.00;;;;2104693;28;20696;-71
2023/08/20 04:23:30;;;;;;;9.48;8.52;;;;;22.80;101021.00;;;;2094850;28;20196;-71
2023/08/20 04:24:30;;;;;;;10.90;8.47;;;;;22.70;101018.00;;;;2105022;28;20791;-71
2023/08/20 04:25:31;;;;;;;8.90;8.00;;;;;22.70;101009.00;;;;2110556;28;20738;-71
2023/08/20 04:26:31;;;;;;;9.17;8.13;;;;;22.80;101023.00;;;;2103867;28;20210;-71
2023/08/20 04:27:31;;;;;;;9.80;8.80;;;;;22.80;101015.00;;;;2104764;28;20231;-71
2023/08/20 04:28:32;;;;;;;9.60;8.70;;;;;22.80;101019.00;;;;2094773;28;20236;-71
2023/08/20 04:29:32;;;;;;;9.57;8.57;;;;;22.70;101017.00;;;;2105973;28;20204;-71
2023/08/20 04:30:34;;;;;;;13.30;11.10;;;;;22.70;101017.00;;;;2109216;28;20199;-71
2023/08/20 04:31:35;;;;;;;28.30;25.67;;;;;22.70;101028.00;;;;2103658;28;20228;-71
2023/08/20 04:32:35;;;;;;;26.80;24.20;;;;;22.70;101026.00;;;;2100801;28;20222;-71
2023/08/20 04:33:35;;;;;;;32.47;29.57;;;;;22.70;101031.00;;;;2094102;28;20576;-71
2023/08/20 04:34:36;;;;;;;23.73;21.47;;;;;22.70;101037.00;;;;2104715;28;20196;-71
2023/08/20 04:35:36;;;;;;;19.23;17.43;;;;;22.70;101037.00;;;;2102942;28;20228;-71
2023/08/20 04:36:36;;;;;;;23.27;15.80;;;;;22.70;101037.00;;;;2104103;28;20222;-72
2023/08/20 04:37:37;;;;;;;15.73;14.13;;;;;22.70;101039.00;;;;2105292;28;20218;-72
2023/08/20 04:38:37;;;;;;;15.80;14.10;;;;;22.70;101037.00;;;;2097281;28;20214;-72
2023/08/20 04:39:37;;;;;;;14.37;13.07;;;;;22.70;101015.00;;;;2113053;28;20219;-72
2023/08/20 04:40:38;;;;;;;14.07;12.77;;;;;22.60;101018.00;;;;2103326;28;21854;-72
2023/08/20 04:41:38;;;;;;;13.90;11.93;;;;;22.70;101016.00;;;;2104735;28;20238;-72
2023/08/20 04:42:38;;;;;;;12.87;11.50;;;;;22.60;101036.00;;;;2105291;28;20699;-72
2023/08/20 04:43:39;;;;;;;13.40;10.30;;;;;22.70;101046.00;;;;2093523;28;20692;-72
2023/08/20 04:44:39;;;;;;;11.43;10.43;;;;;22.70;101044.00;;;;2104210;28;20223;-72
2023/08/20 04:45:40;;;;;;;12.10;9.50;;;;;22.70;101042.00;;;;2103340;28;20235;-72
2023/08/20 04:46:40;;;;;;;10.77;9.63;;;;;22.70;101045.00;;;;2105266;28;20296;-72
2023/08/20 04:47:41;;;;;;;10.70;9.60;;;;;22.70;101044.00;;;;2104917;28;20272;-72
2023/08/20 04:48:41;;;;;;;11.07;10.07;;;;;22.60;101026.00;;;;2091933;28;20235;-72
2023/08/20 04:49:41;;;;;;;10.93;9.87;;;;;22.60;101034.00;;;;2099509;28;20219;-72
2023/08/20 04:50:42;;;;;;;9.67;8.77;;;;;22.70;101044.00;;;;2103883;28;20226;-71
2023/08/20 04:51:42;;;;;;;9.50;8.70;;;;;22.70;101040.00;;;;2105333;28;20219;-71
2023/08/20 04:52:42;;;;;;;10.97;8.40;;;;;22.70;101046.00;;;;2103541;28;20220;-71
2023/08/20 04:53:43;;;;;;;9.90;9.10;;;;;22.60;101034.00;;;;2089929;28;20241;-71
2023/08/20 04:54:43;;;;;;;10.67;8.03;;;;;22.60;101046.00;;;;2102576;28;20216;-71
2023/08/20 04:55:43;;;;;;;9.40;8.60;;;;;22.60;101043.00;;;;2102977;28;20227;-71
2023/08/20 04:56:43;;;;;;;10.30;7.97;;;;;22.60;101042.00;;;;2105116;28;20235;-71
2023/08/20 04:57:44;;;;;;;8.67;7.87;;;;;22.60;101038.00;;;;2101644;28;20211;-71
2023/08/20 04:58:44;;;;;;;8.57;7.77;;;;;22.60;101038.00;;;;2085812;28;20220;-71
2023/08/20 04:59:45;;;;;;;9.60;7.93;;;;;22.60;101048.00;;;;2101494;28;20307;-71
2023/08/20 05:00:45;;;;;;;8.47;7.63;;;;;22.70;101043.00;;;;2104840;28;20219;-71
2023/08/20 05:01:45;;;;;;;9.70;7.60;;;;;22.60;101040.00;;;;2103981;28;20282;-71